sensor_id;sensor_type;location;lat;lon;timestamp;pressure;altitude;pressure_sealevel;temperature;humidity
56456;BME280;42354;53.218;6.564;2023-07-02T00:00:55;46981.13;;;-142.92;73.83
56456;BME280;42354;53.218;6.564;2023-07-02T00:03:21;46987.28;;;-142.92;73.81
56456;BME280;42354;53.218;6.564;2023-07-02T00:05:48;46983.19;;;-142.92;74.12
56456;BME280;42354;53.218;6.564;2023-07-02T00:08:16;46977.03;;;-142.92;74.68
56456;BME280;42354;53.218;6.564;2023-07-02T00:10:41;46985.22;;;-142.92;74.96
56456;BME280;42354;53.218;6.564;2023-07-02T00:13:07;46966.75;;;-142.92;75.07
56456;BME280;42354;53.218;6.564;2023-07-02T00:15:32;46946.25;;;-142.92;75.54
56456;BME280;42354;53.218;6.564;2023-07-02T00:17:57;46989.34;;;-142.92;75.94
56456;BME280;42354;53.218;6.564;2023-07-02T00:20:23;46985.22;;;-142.92;76.12
56456;BME280;42354;53.218;6.564;2023-07-02T00:22:49;46981.13;;;-142.92;76.41
56456;BME280;42354;53.218;6.564;2023-07-02T00:25:14;46985.22;;;-142.92;76.68
56456;BME280;42354;53.218;6.564;2023-07-02T00:27:40;46987.28;;;-142.92;77.06
56456;BME280;42354;53.218;6.564;2023-07-02T00:30:06;46977.03;;;-142.92;77.06
56456;BME280;42354;53.218;6.564;2023-07-02T00:32:32;46974.97;;;-142.92;76.99
56456;BME280;42354;53.218;6.564;2023-07-02T00:34:57;46970.88;;;-142.92;77.21
56456;BME280;42354;53.218;6.564;2023-07-02T00:37:24;46974.97;;;-142.92;77.39
56456;BME280;42354;53.218;6.564;2023-07-02T00:39:49;46958.56;;;-142.92;77.46
56456;BME280;42354;53.218;6.564;2023-07-02T00:42:15;46954.44;;;-142.92;77.54
56456;BME280;42354;53.218;6.564;2023-07-02T00:44:41;46981.13;;;-142.92;77.69
56456;BME280;42354;53.218;6.564;2023-07-02T00:47:11;46995.50;;;-142.92;77.39
56456;BME280;42354;53.218;6.564;2023-07-02T00:49:37;46962.66;;;-142.92;77.63
56456;BME280;42354;53.218;6.564;2023-07-02T00:52:05;46979.06;;;-142.92;77.73
56456;BME280;42354;53.218;6.564;2023-07-02T00:54:31;46972.91;;;-142.92;78.22
56456;BME280;42354;53.218;6.564;2023-07-02T00:56:57;46983.19;;;-142.92;78.29
56456;BME280;42354;53.218;6.564;2023-07-02T00:59:27;46977.03;;;-142.92;78.63
56456;BME280;42354;53.218;6.564;2023-07-02T01:01:55;46989.34;;;-142.92;78.77
56456;BME280;42354;53.218;6.564;2023-07-02T01:04:22;46979.06;;;-142.92;78.85
56456;BME280;42354;53.218;6.564;2023-07-02T01:06:53;46970.88;;;-142.92;79.28
56456;BME280;42354;53.218;6.564;2023-07-02T01:09:22;46970.88;;;-142.92;79.34
56456;BME280;42354;53.218;6.564;2023-07-02T01:11:54;46964.72;;;-142.92;79.37
56456;BME280;42354;53.218;6.564;2023-07-02T01:14:33;46979.06;;;-142.92;79.45
56456;BME280;42354;53.218;6.564;2023-07-02T01:17:01;46968.81;;;-142.92;79.77
56456;BME280;42354;53.218;6.564;2023-07-02T01:19:49;46970.88;;;-142.92;79.90
56456;BME280;42354;53.218;6.564;2023-07-02T01:22:23;46981.13;;;-142.92;80.36
56456;BME280;42354;53.218;6.564;2023-07-02T01:24:50;46974.97;;;-142.92;80.48
56456;BME280;42354;53.218;6.564;2023-07-02T01:27:16;46974.97;;;-142.92;80.66
56456;BME280;42354;53.218;6.564;2023-07-02T01:29:42;47001.66;;;-142.92;80.83
56456;BME280;42354;53.218;6.564;2023-07-02T01:32:10;46974.97;;;-142.92;80.87
56456;BME280;42354;53.218;6.564;2023-07-02T01:34:36;46987.28;;;-142.92;80.99
56456;BME280;42354;53.218;6.564;2023-07-02T01:37:03;46979.06;;;-142.92;81.16
56456;BME280;42354;53.218;6.564;2023-07-02T01:39:29;46981.13;;;-142.92;81.48
56456;BME280;42354;53.218;6.564;2023-07-02T01:41:55;46987.28;;;-142.92;81.57
56456;BME280;42354;53.218;6.564;2023-07-02T01:44:21;46989.34;;;-142.92;81.67
56456;BME280;42354;53.218;6.564;2023-07-02T01:46:47;46970.88;;;-142.92;81.80
56456;BME280;42354;53.218;6.564;2023-07-02T01:49:18;46972.91;;;-142.92;81.67
56456;BME280;42354;53.218;6.564;2023-07-02T01:51:51;46983.19;;;-142.92;81.87
56456;BME280;42354;53.218;6.564;2023-07-02T01:54:20;46977.03;;;-142.92;82.17
56456;BME280;42354;53.218;6.564;2023-07-02T01:56:45;46966.75;;;-142.92;82.50
56456;BME280;42354;53.218;6.564;2023-07-02T01:59:11;46985.22;;;-142.92;82.73
56456;BME280;42354;53.218;6.564;2023-07-02T02:01:37;46970.88;;;-142.92;83.24
56456;BME280;42354;53.218;6.564;2023-07-02T02:04:06;46989.34;;;-142.92;83.21
56456;BME280;42354;53.218;6.564;2023-07-02T02:06:32;46979.06;;;-142.92;83.11
56456;BME280;42354;53.218;6.564;2023-07-02T02:08:57;46991.38;;;-142.92;83.48
56456;BME280;42354;53.218;6.564;2023-07-02T02:11:22;46983.19;;;-142.92;83.70
56456;BME280;42354;53.218;6.564;2023-07-02T02:13:49;46966.75;;;-142.92;83.89
56456;BME280;42354;53.218;6.564;2023-07-02T02:16:14;46995.50;;;-142.92;84.17
56456;BME280;42354;53.218;6.564;2023-07-02T02:18:39;46981.13;;;-142.92;84.36
56456;BME280;42354;53.218;6.564;2023-07-02T02:21:05;46979.06;;;-142.92;84.70
56456;BME280;42354;53.218;6.564;2023-07-02T02:23:30;46985.22;;;-142.92;84.86
56456;BME280;42354;53.218;6.564;2023-07-02T02:25:55;46972.91;;;-142.92;85.05
56456;BME280;42354;53.218;6.564;2023-07-02T02:28:21;46970.88;;;-142.92;85.09
56456;BME280;42354;53.218;6.564;2023-07-02T02:30:46;46983.19;;;-142.92;85.26
56456;BME280;42354;53.218;6.564;2023-07-02T02:33:12;47001.66;;;-142.92;85.63
56456;BME280;42354;53.218;6.564;2023-07-02T02:35:37;46972.91;;;-142.92;85.83
56456;BME280;42354;53.218;6.564;2023-07-02T02:38:03;46964.72;;;-142.92;85.93
56456;BME280;42354;53.218;6.564;2023-07-02T02:40:29;46960.59;;;-142.92;86.22
56456;BME280;42354;53.218;6.564;2023-07-02T02:42:55;46981.13;;;-142.92;86.56
56456;BME280;42354;53.218;6.564;2023-07-02T02:45:20;46964.72;;;-142.92;86.78
56456;BME280;42354;53.218;6.564;2023-07-02T02:47:46;46974.97;;;-142.92;87.33
56456;BME280;42354;53.218;6.564;2023-07-02T02:50:12;46983.19;;;-142.92;87.61
56456;BME280;42354;53.218;6.564;2023-07-02T02:52:38;46974.97;;;-142.92;87.90
56456;BME280;42354;53.218;6.564;2023-07-02T02:55:05;46972.91;;;-142.92;88.23
56456;BME280;42354;53.218;6.564;2023-07-02T02:57:31;46968.81;;;-142.92;88.43
56456;BME280;42354;53.218;6.564;2023-07-02T02:59:56;46993.44;;;-142.92;88.96
56456;BME280;42354;53.218;6.564;2023-07-02T03:02:22;46979.06;;;-142.92;89.09
56456;BME280;42354;53.218;6.564;2023-07-02T03:04:47;46977.03;;;-142.92;89.28
56456;BME280;42354;53.218;6.564;2023-07-02T03:07:14;46979.06;;;-142.92;89.62
56456;BME280;42354;53.218;6.564;2023-07-02T03:09:39;46974.97;;;-142.92;90.06
56456;BME280;42354;53.218;6.564;2023-07-02T03:12:05;46983.19;;;-142.92;90.20
56456;BME280;42354;53.218;6.564;2023-07-02T03:14:31;46970.88;;;-142.92;90.32
56456;BME280;42354;53.218;6.564;2023-07-02T03:16:56;46974.97;;;-142.92;90.32
56456;BME280;42354;53.218;6.564;2023-07-02T03:19:22;46987.28;;;-142.92;90.64
56456;BME280;42354;53.218;6.564;2023-07-02T03:21:47;46991.38;;;-142.92;90.69
56456;BME280;42354;53.218;6.564;2023-07-02T03:24:12;46991.38;;;-142.92;90.82
56456;BME280;42354;53.218;6.564;2023-07-02T03:26:44;46972.91;;;-142.92;90.75
56456;BME280;42354;53.218;6.564;2023-07-02T03:29:10;46983.19;;;-142.92;91.04
56456;BME280;42354;53.218;6.564;2023-07-02T03:31:35;46979.06;;;-142.92;90.95
56456;BME280;42354;53.218;6.564;2023-07-02T03:34:09;46974.97;;;-142.92;91.09
56456;BME280;42354;53.218;6.564;2023-07-02T03:36:38;46991.38;;;-142.92;90.75
56456;BME280;42354;53.218;6.564;2023-07-02T03:39:04;46970.88;;;-142.92;90.94
56456;BME280;42354;53.218;6.564;2023-07-02T03:41:31;46979.06;;;-142.92;91.03
56456;BME280;42354;53.218;6.564;2023-07-02T03:43:56;46970.88;;;-142.92;91.02
56456;BME280;42354;53.218;6.564;2023-07-02T03:46:21;46970.88;;;-142.92;90.95
56456;BME280;42354;53.218;6.564;2023-07-02T03:48:47;46981.13;;;-142.92;91.02
56456;BME280;42354;53.218;6.564;2023-07-02T03:51:12;46985.22;;;-142.92;91.14
56456;BME280;42354;53.218;6.564;2023-07-02T03:53:39;46983.19;;;-142.92;90.87
56456;BME280;42354;53.218;6.564;2023-07-02T03:56:05;46974.97;;;-142.92;90.68
56456;BME280;42354;53.218;6.564;2023-07-02T03:58:30;46987.28;;;-142.92;90.75
56456;BME280;42354;53.218;6.564;2023-07-02T04:00:56;46987.28;;;-142.92;90.53
56456;BME280;42354;53.218;6.564;2023-07-02T04:03:21;46985.22;;;-142.92;90.59
56456;BME280;42354;53.218;6.564;2023-07-02T04:05:46;46981.13;;;-142.92;90.58
56456;BME280;42354;53.218;6.564;2023-07-02T04:08:12;46977.03;;;-142.92;90.38
56456;BME280;42354;53.218;6.564;2023-07-02T04:10:37;46979.06;;;-142.92;90.52
56456;BME280;42354;53.218;6.564;2023-07-02T04:13:02;46985.22;;;-142.92;90.25
56456;BME280;42354;53.218;6.564;2023-07-02T04:15:28;46981.13;;;-142.92;90.27
56456;BME280;42354;53.218;6.564;2023-07-02T04:17:53;46964.72;;;-142.92;89.94
56456;BME280;42354;53.218;6.564;2023-07-02T04:20:20;46977.03;;;-142.92;89.52
56456;BME280;42354;53.218;6.564;2023-07-02T04:22:46;46983.19;;;-142.92;89.22
56456;BME280;42354;53.218;6.564;2023-07-02T04:25:12;46983.19;;;-142.92;88.73
56456;BME280;42354;53.218;6.564;2023-07-02T04:27:42;46987.28;;;-142.92;88.40
56456;BME280;42354;53.218;6.564;2023-07-02T04:30:08;46979.06;;;-142.92;88.21
56456;BME280;42354;53.218;6.564;2023-07-02T04:32:33;46983.19;;;-142.92;88.10
56456;BME280;42354;53.218;6.564;2023-07-02T04:34:59;46966.75;;;-142.92;87.88
56456;BME280;42354;53.218;6.564;2023-07-02T04:37:24;46983.19;;;-142.92;87.60
56456;BME280;42354;53.218;6.564;2023-07-02T04:39:50;46981.13;;;-142.92;87.20
56456;BME280;42354;53.218;6.564;2023-07-02T04:42:15;46972.91;;;-142.92;86.81
56456;BME280;42354;53.218;6.564;2023-07-02T04:44:40;46981.13;;;-142.92;86.13
56456;BME280;42354;53.218;6.564;2023-07-02T04:47:08;46989.34;;;-142.92;85.98
56456;BME280;42354;53.218;6.564;2023-07-02T04:49:34;46983.19;;;-142.92;85.53
56456;BME280;42354;53.218;6.564;2023-07-02T04:51:59;46987.28;;;-142.92;85.53
56456;BME280;42354;53.218;6.564;2023-07-02T04:54:25;46987.28;;;-142.92;84.51
56456;BME280;42354;53.218;6.564;2023-07-02T04:56:50;46972.91;;;-142.92;83.30
56456;BME280;42354;53.218;6.564;2023-07-02T04:59:16;46983.19;;;-142.92;82.48
56456;BME280;42354;53.218;6.564;2023-07-02T05:01:41;46974.97;;;-142.92;81.53
56456;BME280;42354;53.218;6.564;2023-07-02T05:04:09;46979.06;;;-142.92;79.67
56456;BME280;42354;53.218;6.564;2023-07-02T05:06:35;46987.28;;;-142.92;77.48
56456;BME280;42354;53.218;6.564;2023-07-02T05:09:01;46995.50;;;-142.92;74.23
56456;BME280;42354;53.218;6.564;2023-07-02T05:11:26;46977.03;;;-142.92;73.25
56456;BME280;42354;53.218;6.564;2023-07-02T05:13:51;46987.28;;;-142.92;72.89
56456;BME280;42354;53.218;6.564;2023-07-02T05:16:17;46968.81;;;-142.92;72.33
56456;BME280;42354;53.218;6.564;2023-07-02T05:18:42;46974.97;;;-142.92;69.34
56456;BME280;42354;53.218;6.564;2023-07-02T05:21:07;46981.13;;;-142.92;68.49
56456;BME280;42354;53.218;6.564;2023-07-02T05:23:33;46997.53;;;-142.92;68.39
56456;BME280;42354;53.218;6.564;2023-07-02T05:25:58;46987.28;;;-142.92;67.48
56456;BME280;42354;53.218;6.564;2023-07-02T05:28:24;46979.06;;;-142.92;68.78
56456;BME280;42354;53.218;6.564;2023-07-02T05:30:50;46977.03;;;-142.92;69.70
56456;BME280;42354;53.218;6.564;2023-07-02T05:33:15;46991.38;;;-142.92;68.77
56456;BME280;42354;53.218;6.564;2023-07-02T05:35:41;46979.06;;;-142.92;68.23
56456;BME280;42354;53.218;6.564;2023-07-02T05:38:06;46979.06;;;-142.92;68.05
56456;BME280;42354;53.218;6.564;2023-07-02T05:40:31;46966.75;;;-142.92;68.61
56456;BME280;42354;53.218;6.564;2023-07-02T05:42:57;46985.22;;;-142.92;69.06
56456;BME280;42354;53.218;6.564;2023-07-02T05:45:22;46966.75;;;-142.92;69.36
56456;BME280;42354;53.218;6.564;2023-07-02T05:47:48;46954.44;;;-142.92;69.28
56456;BME280;42354;53.218;6.564;2023-07-02T05:50:14;46972.91;;;-142.92;68.98
56456;BME280;42354;53.218;6.564;2023-07-02T05:52:39;46970.88;;;-142.92;69.21
56456;BME280;42354;53.218;6.564;2023-07-02T05:55:07;46983.19;;;-142.92;67.17
56456;BME280;42354;53.218;6.564;2023-07-02T05:57:36;46985.22;;;-142.92;67.04
56456;BME280;42354;53.218;6.564;2023-07-02T06:00:01;46977.03;;;-142.92;66.33
56456;BME280;42354;53.218;6.564;2023-07-02T06:02:26;46983.19;;;-142.92;67.00
56456;BME280;42354;53.218;6.564;2023-07-02T06:04:52;46991.38;;;-142.92;67.30
56456;BME280;42354;53.218;6.564;2023-07-02T06:07:17;46972.91;;;-142.92;67.09
56456;BME280;42354;53.218;6.564;2023-07-02T06:09:43;46983.19;;;-142.92;66.21
56456;BME280;42354;53.218;6.564;2023-07-02T06:12:08;46987.28;;;-142.92;67.09
56456;BME280;42354;53.218;6.564;2023-07-02T06:14:33;46977.03;;;-142.92;66.49
56456;BME280;42354;53.218;6.564;2023-07-02T06:16:59;46991.38;;;-142.92;66.61
56456;BME280;42354;53.218;6.564;2023-07-02T06:19:26;46981.13;;;-142.92;66.84
56456;BME280;42354;53.218;6.564;2023-07-02T06:21:51;46979.06;;;-142.92;65.92
56456;BME280;42354;53.218;6.564;2023-07-02T06:24:16;46983.19;;;-142.92;66.19
56456;BME280;42354;53.218;6.564;2023-07-02T06:26:42;46989.34;;;-142.92;65.71
56456;BME280;42354;53.218;6.564;2023-07-02T06:29:07;46977.03;;;-142.92;65.46
56456;BME280;42354;53.218;6.564;2023-07-02T06:31:33;46983.19;;;-142.92;64.09
56456;BME280;42354;53.218;6.564;2023-07-02T06:33:59;46968.81;;;-142.92;63.63
56456;BME280;42354;53.218;6.564;2023-07-02T06:36:24;46999.59;;;-142.92;63.25
56456;BME280;42354;53.218;6.564;2023-07-02T06:38:49;46979.06;;;-142.92;63.53
56456;BME280;42354;53.218;6.564;2023-07-02T06:41:15;46993.44;;;-142.92;62.52
56456;BME280;42354;53.218;6.564;2023-07-02T06:43:42;46962.66;;;-142.92;61.00
56456;BME280;42354;53.218;6.564;2023-07-02T06:46:10;46985.22;;;-142.92;55.76
56456;BME280;42354;53.218;6.564;2023-07-02T06:48:35;46993.44;;;-142.92;56.32
56456;BME280;42354;53.218;6.564;2023-07-02T06:51:00;46983.19;;;-142.92;53.94
56456;BME280;42354;53.218;6.564;2023-07-02T06:53:26;46970.88;;;-142.92;54.22
56456;BME280;42354;53.218;6.564;2023-07-02T06:55:52;46983.19;;;-142.92;54.39
56456;BME280;42354;53.218;6.564;2023-07-02T06:58:18;46974.97;;;-142.92;55.45
56456;BME280;42354;53.218;6.564;2023-07-02T07:00:43;46983.19;;;-142.92;56.73
56456;BME280;42354;53.218;6.564;2023-07-02T07:03:09;46977.03;;;-142.92;55.69
56456;BME280;42354;53.218;6.564;2023-07-02T07:05:34;46989.34;;;-142.92;55.25
56456;BME280;42354;53.218;6.564;2023-07-02T07:08:00;46966.75;;;-142.92;56.69
56456;BME280;42354;53.218;6.564;2023-07-02T07:10:28;46970.88;;;-142.92;57.94
56456;BME280;42354;53.218;6.564;2023-07-02T07:12:59;46974.97;;;-142.92;57.20
56456;BME280;42354;53.218;6.564;2023-07-02T07:15:24;46968.81;;;-142.92;53.42
56456;BME280;42354;53.218;6.564;2023-07-02T07:17:50;46962.66;;;-142.92;52.24
56456;BME280;42354;53.218;6.564;2023-07-02T07:20:15;46981.13;;;-142.92;51.02
56456;BME280;42354;53.218;6.564;2023-07-02T07:22:40;46962.66;;;-142.92;51.56
56456;BME280;42354;53.218;6.564;2023-07-02T07:25:07;46991.38;;;-142.92;51.09
56456;BME280;42354;53.218;6.564;2023-07-02T07:27:32;46983.19;;;-142.92;51.35
56456;BME280;42354;53.218;6.564;2023-07-02T07:29:57;46979.06;;;-142.92;51.13
56456;BME280;42354;53.218;6.564;2023-07-02T07:32:23;46970.88;;;-142.92;52.21
56456;BME280;42354;53.218;6.564;2023-07-02T07:37:17;46981.13;;;-142.92;49.70
56456;BME280;42354;53.218;6.564;2023-07-02T07:39:43;46962.66;;;-142.92;49.00
56456;BME280;42354;53.218;6.564;2023-07-02T07:42:08;46987.28;;;-142.92;49.92
56456;BME280;42354;53.218;6.564;2023-07-02T07:44:33;46977.03;;;-142.92;51.79
56456;BME280;42354;53.218;6.564;2023-07-02T07:46:59;46974.97;;;-142.92;47.58
56456;BME280;42354;53.218;6.564;2023-07-02T07:49:24;46966.75;;;-142.92;47.21
56456;BME280;42354;53.218;6.564;2023-07-02T07:51:50;46989.34;;;-142.92;48.33
56456;BME280;42354;53.218;6.564;2023-07-02T07:54:15;46970.88;;;-142.92;47.89
56456;BME280;42354;53.218;6.564;2023-07-02T07:56:40;46974.97;;;-142.92;48.15
56456;BME280;42354;53.218;6.564;2023-07-02T07:59:06;46981.13;;;-142.92;48.29
56456;BME280;42354;53.218;6.564;2023-07-02T08:01:31;46987.28;;;-142.92;48.54
56456;BME280;42354;53.218;6.564;2023-07-02T08:03:56;46968.81;;;-142.92;48.61
56456;BME280;42354;53.218;6.564;2023-07-02T08:06:22;46983.19;;;-142.92;49.26
56456;BME280;42354;53.218;6.564;2023-07-02T08:08:47;46979.06;;;-142.92;49.04
56456;BME280;42354;53.218;6.564;2023-07-02T08:11:13;46991.38;;;-142.92;49.01
56456;BME280;42354;53.218;6.564;2023-07-02T08:13:38;46983.19;;;-142.92;48.04
56456;BME280;42354;53.218;6.564;2023-07-02T08:16:04;46977.03;;;-142.92;47.93
56456;BME280;42354;53.218;6.564;2023-07-02T08:18:29;46972.91;;;-142.92;47.29
56456;BME280;42354;53.218;6.564;2023-07-02T08:20:55;46981.13;;;-142.92;49.18
56456;BME280;42354;53.218;6.564;2023-07-02T08:23:20;46974.97;;;-142.92;51.06
56456;BME280;42354;53.218;6.564;2023-07-02T08:25:45;46974.97;;;-142.92;53.18
56456;BME280;42354;53.218;6.564;2023-07-02T08:28:11;46977.03;;;-142.92;53.98
56456;BME280;42354;53.218;6.564;2023-07-02T08:30:36;46987.28;;;-142.92;57.25
56456;BME280;42354;53.218;6.564;2023-07-02T08:33:02;46985.22;;;-142.92;63.71
56456;BME280;42354;53.218;6.564;2023-07-02T08:35:27;46968.81;;;-142.92;68.33
56456;BME280;42354;53.218;6.564;2023-07-02T08:37:52;46968.81;;;-142.92;70.09
56456;BME280;42354;53.218;6.564;2023-07-02T08:40:19;46979.06;;;-142.92;72.44
56456;BME280;42354;53.218;6.564;2023-07-02T08:42:47;46962.66;;;-142.92;73.11
56456;BME280;42354;53.218;6.564;2023-07-02T08:45:15;46979.06;;;-142.92;73.15
56456;BME280;42354;53.218;6.564;2023-07-02T08:47:44;46960.59;;;-142.92;70.66
56456;BME280;42354;53.218;6.564;2023-07-02T08:50:14;46981.13;;;-142.92;69.19
56456;BME280;42354;53.218;6.564;2023-07-02T08:52:40;46987.28;;;-142.92;64.79
56456;BME280;42354;53.218;6.564;2023-07-02T08:55:06;46958.56;;;-142.92;60.96
56456;BME280;42354;53.218;6.564;2023-07-02T08:57:31;46983.19;;;-142.92;57.57
56456;BME280;42354;53.218;6.564;2023-07-02T08:59:57;46979.06;;;-142.92;56.64
56456;BME280;42354;53.218;6.564;2023-07-02T09:02:32;46972.91;;;-142.92;54.28
56456;BME280;42354;53.218;6.564;2023-07-02T09:05:00;46983.19;;;-142.92;56.09
56456;BME280;42354;53.218;6.564;2023-07-02T09:07:26;46977.03;;;-142.92;55.67
56456;BME280;42354;53.218;6.564;2023-07-02T09:09:51;46970.88;;;-142.92;56.58
56456;BME280;42354;53.218;6.564;2023-07-02T09:12:27;46962.66;;;-142.92;55.94
56456;BME280;42354;53.218;6.564;2023-07-02T09:15:01;46962.66;;;-142.92;56.49
56456;BME280;42354;53.218;6.564;2023-07-02T09:17:32;46985.22;;;-142.92;55.61
56456;BME280;42354;53.218;6.564;2023-07-02T09:19:59;46970.88;;;-142.92;56.91
56456;BME280;42354;53.218;6.564;2023-07-02T09:22:26;46970.88;;;-142.92;53.68
56456;BME280;42354;53.218;6.564;2023-07-02T09:24:53;46954.44;;;-142.92;50.54
56456;BME280;42354;53.218;6.564;2023-07-02T09:27:19;46962.66;;;-142.92;49.41
56456;BME280;42354;53.218;6.564;2023-07-02T09:29:50;46977.03;;;-142.92;48.70
56456;BME280;42354;53.218;6.564;2023-07-02T09:32:24;46974.97;;;-142.92;48.72
56456;BME280;42354;53.218;6.564;2023-07-02T09:34:54;46977.03;;;-142.92;49.95
56456;BME280;42354;53.218;6.564;2023-07-02T09:37:20;46974.97;;;-142.92;49.92
56456;BME280;42354;53.218;6.564;2023-07-02T09:39:51;46979.06;;;-142.92;45.40
56456;BME280;42354;53.218;6.564;2023-07-02T09:42:19;46979.06;;;-142.92;44.40
56456;BME280;42354;53.218;6.564;2023-07-02T09:44:46;46979.06;;;-142.92;45.15
56456;BME280;42354;53.218;6.564;2023-07-02T09:47:12;46966.75;;;-142.92;44.55
56456;BME280;42354;53.218;6.564;2023-07-02T09:49:48;46968.81;;;-142.92;43.85
56456;BME280;42354;53.218;6.564;2023-07-02T09:52:14;46991.38;;;-142.92;41.87
56456;BME280;42354;53.218;6.564;2023-07-02T09:54:41;46964.72;;;-142.92;41.50
56456;BME280;42354;53.218;6.564;2023-07-02T09:57:07;46972.91;;;-142.92;41.93
56456;BME280;42354;53.218;6.564;2023-07-02T09:59:33;46974.97;;;-142.92;41.70
56456;BME280;42354;53.218;6.564;2023-07-02T10:01:58;46981.13;;;-142.92;42.45
56456;BME280;42354;53.218;6.564;2023-07-02T10:04:24;46974.97;;;-142.92;42.09
56456;BME280;42354;53.218;6.564;2023-07-02T10:06:52;46983.19;;;-142.92;41.57
56456;BME280;42354;53.218;6.564;2023-07-02T10:09:18;46960.59;;;-142.92;42.43
56456;BME280;42354;53.218;6.564;2023-07-02T10:11:44;46966.75;;;-142.92;43.71
56456;BME280;42354;53.218;6.564;2023-07-02T10:14:10;46987.28;;;-142.92;43.21
56456;BME280;42354;53.218;6.564;2023-07-02T10:16:53;46962.66;;;-142.92;43.80
56456;BME280;42354;53.218;6.564;2023-07-02T10:19:19;46970.88;;;-142.92;42.27
56456;BME280;42354;53.218;6.564;2023-07-02T10:21:45;46964.72;;;-142.92;41.30
56456;BME280;42354;53.218;6.564;2023-07-02T10:24:15;46974.97;;;-142.92;41.96
56456;BME280;42354;53.218;6.564;2023-07-02T10:27:01;46970.88;;;-142.92;41.73
56456;BME280;42354;53.218;6.564;2023-07-02T10:29:27;46962.66;;;-142.92;40.60
56456;BME280;42354;53.218;6.564;2023-07-02T10:31:55;46962.66;;;-142.92;40.08
56456;BME280;42354;53.218;6.564;2023-07-02T10:34:30;46970.88;;;-142.92;41.11
56456;BME280;42354;53.218;6.564;2023-07-02T10:36:56;46979.06;;;-142.92;42.09
56456;BME280;42354;53.218;6.564;2023-07-02T10:39:22;46970.88;;;-142.92;41.79
56456;BME280;42354;53.218;6.564;2023-07-02T10:41:47;46974.97;;;-142.92;41.83
56456;BME280;42354;53.218;6.564;2023-07-02T10:44:14;46983.19;;;-142.92;42.43
56456;BME280;42354;53.218;6.564;2023-07-02T10:46:47;46974.97;;;-142.92;41.75
56456;BME280;42354;53.218;6.564;2023-07-02T10:49:14;46977.03;;;-142.92;42.04
56456;BME280;42354;53.218;6.564;2023-07-02T10:51:39;46968.81;;;-142.92;40.89
56456;BME280;42354;53.218;6.564;2023-07-02T10:54:05;46968.81;;;-142.92;38.76
56456;BME280;42354;53.218;6.564;2023-07-02T10:56:31;46974.97;;;-142.92;39.63
56456;BME280;42354;53.218;6.564;2023-07-02T10:58:57;46960.59;;;-142.92;40.49
56456;BME280;42354;53.218;6.564;2023-07-02T11:01:29;46968.81;;;-142.92;41.04
56456;BME280;42354;53.218;6.564;2023-07-02T11:04:00;46968.81;;;-142.92;41.71
56456;BME280;42354;53.218;6.564;2023-07-02T11:06:29;46950.34;;;-142.92;42.58
56456;BME280;42354;53.218;6.564;2023-07-02T11:08:56;46974.97;;;-142.92;42.17
56456;BME280;42354;53.218;6.564;2023-07-02T11:11:22;46970.88;;;-142.92;43.11
56456;BME280;42354;53.218;6.564;2023-07-02T11:13:49;46977.03;;;-142.92;43.79
56456;BME280;42354;53.218;6.564;2023-07-02T11:16:25;46977.03;;;-142.92;42.38
56456;BME280;42354;53.218;6.564;2023-07-02T11:19:05;46974.97;;;-142.92;42.53
56456;BME280;42354;53.218;6.564;2023-07-02T11:21:36;46960.59;;;-142.92;42.00
56456;BME280;42354;53.218;6.564;2023-07-02T11:24:05;46979.06;;;-142.92;40.21
56456;BME280;42354;53.218;6.564;2023-07-02T11:26:38;46972.91;;;-142.92;41.20
56456;BME280;42354;53.218;6.564;2023-07-02T11:29:07;46979.06;;;-142.92;41.17
56456;BME280;42354;53.218;6.564;2023-07-02T11:31:35;46958.56;;;-142.92;41.82
56456;BME280;42354;53.218;6.564;2023-07-02T11:34:00;46974.97;;;-142.92;41.17
56456;BME280;42354;53.218;6.564;2023-07-02T11:36:26;46970.88;;;-142.92;39.58
56456;BME280;42354;53.218;6.564;2023-07-02T11:38:51;46962.66;;;-142.92;40.88
56456;BME280;42354;53.218;6.564;2023-07-02T11:41:18;46958.56;;;-142.92;40.91
56456;BME280;42354;53.218;6.564;2023-07-02T11:43:43;46970.88;;;-142.92;39.65
56456;BME280;42354;53.218;6.564;2023-07-02T11:46:09;46970.88;;;-142.92;39.95
56456;BME280;42354;53.218;6.564;2023-07-02T11:48:34;46962.66;;;-142.92;40.76
56456;BME280;42354;53.218;6.564;2023-07-02T11:50:59;46962.66;;;-142.92;40.99
56456;BME280;42354;53.218;6.564;2023-07-02T11:53:25;46968.81;;;-142.92;41.98
56456;BME280;42354;53.218;6.564;2023-07-02T11:55:50;46952.41;;;-142.92;42.33
56456;BME280;42354;53.218;6.564;2023-07-02T11:58:16;46970.88;;;-142.92;42.86
56456;BME280;42354;53.218;6.564;2023-07-02T12:00:41;46966.75;;;-142.92;40.72
56456;BME280;42354;53.218;6.564;2023-07-02T12:03:06;46977.03;;;-142.92;40.77
56456;BME280;42354;53.218;6.564;2023-07-02T12:05:32;46972.91;;;-142.92;40.96
56456;BME280;42354;53.218;6.564;2023-07-02T12:07:57;46966.75;;;-142.92;40.66
56456;BME280;42354;53.218;6.564;2023-07-02T12:10:23;46966.75;;;-142.92;40.21
56456;BME280;42354;53.218;6.564;2023-07-02T12:12:48;46974.97;;;-142.92;40.49
56456;BME280;42354;53.218;6.564;2023-07-02T12:15:13;46958.56;;;-142.92;40.62
56456;BME280;42354;53.218;6.564;2023-07-02T12:17:39;46985.22;;;-142.92;41.43
56456;BME280;42354;53.218;6.564;2023-07-02T12:20:04;46970.88;;;-142.92;41.72
56456;BME280;42354;53.218;6.564;2023-07-02T12:22:30;46960.59;;;-142.92;41.96
56456;BME280;42354;53.218;6.564;2023-07-02T12:24:55;46993.44;;;-142.92;40.20
56456;BME280;42354;53.218;6.564;2023-07-02T12:27:22;46979.06;;;-142.92;40.65
56456;BME280;42354;53.218;6.564;2023-07-02T12:29:48;46979.06;;;-142.92;40.49
56456;BME280;42354;53.218;6.564;2023-07-02T12:32:14;46972.91;;;-142.92;40.74
56456;BME280;42354;53.218;6.564;2023-07-02T12:34:40;46974.97;;;-142.92;40.77
56456;BME280;42354;53.218;6.564;2023-07-02T12:37:05;46966.75;;;-142.92;41.78
56456;BME280;42354;53.218;6.564;2023-07-02T12:39:30;46979.06;;;-142.92;41.53